AirNav   Air Wisconsin pilot careers
 
 1528 users online  

1O8 Tipton Municipal Airport
Tipton, Oklahoma, USA

GOING TO TIPTON?


FAA INFORMATION EFFECTIVE 21 JUNE 2018

Location

FAA Identifier: 1O8
Lat/Long: 34-27-31.0500N / 099-10-16.8000W
34-27.517500N / 099-10.280000W
34.4586250 / -99.1713333
(estimated)
Elevation: 1248 ft. / 380.4 m (surveyed)
Variation: 07E (2000)
From city: 3 miles SW of TIPTON, OK
Time zone: UTC -5 (UTC -6 during Standard Time)
Zip code: 73570

Airport Operations

Airport use: Open to the public
Activation date: 03/1947
Control tower: no
ARTCC: FORT WORTH CENTER
FSS: MC ALESTER FLIGHT SERVICE STATION
NOTAMs facility: MLC (NOTAM-D service available)
Attendance: UNATNDD
Wind indicator: yes
Segmented circle: no
Lights: SS-SR
Beacon: white-green (lighted land airport)
Operates sunset to sunrise.

Airport Communications

CTAF: 122.9
ALTUS APPROACH: 125.1
ALTUS DEPARTURE: 125.1
WX ASOS at FDR (11 nm SE): 132.675 (580-335-7591)
WX AWOS-3 at F05 (15 nm S): 118.525 (940-552-8600)
WX AWOS-3PT at AXS (17 nm NW): 118.825 (580-477-1745)
  • APCH/DEP SVC PRVDD BY FORT WORTH ARTCC ON FREQS 128.4/269.375 (CLINTON-SHERMAN RCAG) & 133.5/350.35 (WICHITA FALLS NR 2 RCAG) WHEN ALTUS APCH CTL CLSD.

Nearby radio navigation aids

VOR radial/distance  VOR name  Freq  Var
LTSr153/13.2ALTUS VORTAC109.8005E
HBRr182/25.0HOBART VORTAC111.8010E
LAWr258/37.6LAWTON VOR/DME109.4009E

 
NDB name  Hdg/Dist  Freq  Var  ID
POST249/39.042508EPFL .--. ..-. .-..

Airport Services

Airframe service: NONE
Powerplant service: NONE
Bottled oxygen: NONE
Bulk oxygen: NONE

Runway Information

Runway 17/35

Dimensions: 3062 x 50 ft. / 933 x 15 m
Surface: asphalt, in fair condition
Weight bearing capacity: 
Single wheel: 12.0
Runway edge lights: medium intensity
Runway edge markings: NUMBERS FADED.
RUNWAY 17  RUNWAY 35
Latitude: 34-27.769733N34-27.265017N
Longitude: 099-10.280367W099-10.280017W
Elevation: 1248.0 ft.1246.0 ft.
Traffic pattern: leftleft
Runway heading: 173 magnetic, 180 true353 magnetic, 360 true
Markings: numbers only, in poor conditionnumbers only, in poor condition
Touchdown point: yes, no lightsyes, no lights
Obstructions: 34 ft. pole, 615 ft. from runway, 250 ft. left and right of centerline, 12:1 slope to clear34 ft. pole, 265 ft. from runway, 230 ft. left of centerline, 2:1 slope to clear

Airport Ownership and Management from official FAA records

Ownership: Publicly-owned
Owner: CITY OF TIPTON
PO BOX 460
TIPTON, OK 73570
Phone 580-667-5211
Manager: MARVIN HUFF
100 W. MAIN ST.
TIPTON, OK 73570
Phone 580-667-5211
MAYOR.

Airport Operational Statistics

Aircraft based on the field: 5
Single engine airplanes: 5
    
Aircraft operations: avg 29/week *
67% local general aviation
33% transient general aviation
* for 12-month period ending 13 July 2015

Instrument Procedures

There are no published instrument procedures at 1O8.

Some nearby airports with instrument procedures:

KFDR - Frederick Regional Airport (11 nm SE)
KLTS - Altus Air Force Base (13 nm N)
F05 - Wilbarger County Airport (15 nm S)
KAXS - Altus/Quartz Mountain Regional Airport (17 nm NW)
2K4 - Scott Field Airport (31 nm NW)
 
Loc | Ops | Rwys | IFR | FBO | Links
Com | Nav | Svcs | Stats | Notes

AirNav Hotels Sweepstakes
 
Area around 1O8 (Tipton Municipal Airport)
 
Road maps at: MapQuest Bing Google
 
Aerial photo
No photo
 
Sectional chart

 
Airport distance calculator
Flying to Tipton Municipal Airport? Find the distance to fly.

From to 1O8

Sunrise and sunset
Times for 25-Jun-2018
 Local
(UTC-5)
 Zulu
(UTC)
Morning civil twilight05:5710:57
Sunrise06:2711:27
Sunset20:5201:52
Evening civil twilight21:2102:21

Current date and time
Zulu (UTC)  25-Jun-2018 15:00:36
Local (UTC-5)  25-Jun-2018 10:00:36
 
METAR
KFDR 
11nm SE 
251453Z AUTO 15007KT 10SM OVC065 21/18 A3001 RMK AO2 SLP147 T02060183 51020
KLTS 
13nm N 
251356Z AUTO 16007KT 10SM FEW055 OVC075 19/17 A3004 RMK AO2 SLP160 T01930165 CHINO RWY35R $
KF05 
15nm S 
251435Z AUTO 05004KT 10SM OVC065 21/18 A3005 RMK AO1 T02050177
KAXS 
17nm NW 
251435Z AUTO 00000KT 10SM BKN080 BKN090 OVC120 21/17 A3007 RMK AO2 T02050167
TAF
KLTS 
13nm N 
251310Z 2513/2615 12010G15KT 9999 FEW120 SCT200 QNH2993INS TEMPO 2513/2514 8000 -TSRA BKN060CB BECMG 2519/2520 03009KT 9999 FEW050 QNH2995INS BECMG 2601/2602 VRB06KT 9999 BKN050 QNH2997INS TEMPO 2602/2608 08010G15KT 8000 -SHRA VCTS BKN070CB BECMG 2614/2615 21012G20KT 9999 SKC QNH3006INS TX35/2522Z TN19/2513Z
NOTAMs
Click for the latest NOTAMs
NOTAMs are issued by the DoD/FAA and will open in a separate window not controlled by AirNav.

 

 
 

Would you like to see your business listed on this page?

 If your business provides an interesting product or service to pilots, flight crews, aircraft, or users of the Tipton Municipal Airport, you should consider listing it here.  To start the listing process, click on the button below
 
Add a business
 

Other Pages about Tipton Municipal Airport

Update a link
 
Copyright © AirNav, LLC. All rights reserved. Privacy Policy  Contact